Dati Storici

Data ora Umidita' aria (%) Temperatura aria (°C) Rad globale (W/m²) Gonioanemometro (°) Tacoanemometro (m/s) Pioggia (mm)
20-10-2012 06:40 93.8 % 9.799 2.411 72.744 0.007 0
20-10-2012 06:30 93.9 % 10.019 2.668 63.363 0.452 0
20-10-2012 06:20 93.9 % 10.23 2.744 42.286 0.139 0
20-10-2012 06:10 93.8 % 10.414 2.784 35.184 1.248 0
20-10-2012 06:00 93.8 % 10.702 2.4 25.238 0.877 0
20-10-2012 05:50 93.7 % 10.781 1.977 72.126 0.018 0
20-10-2012 05:40 94 % 11.114 1.958 205.961 0.076 0
20-10-2012 05:30 94.3 % 11.45 2.317 241.487 0.142 0
20-10-2012 05:20 94.2 % 11.547 2.292 329.154 0.488 0
20-10-2012 05:10 93.8 % 11.363 1.83 323.996 0.435 0
20-10-2012 05:00 93.8 % 11.435 2.061 278.785 -0.009 0
20-10-2012 04:50 93.9 % 11.544 1.958 218.701 0.154 0
20-10-2012 04:40 93.8 % 11.573 1.894 235.761 0.234 0
20-10-2012 04:30 93.8 % 11.653 2.086 275.933 0.206 0
20-10-2012 04:20 93.5 % 11.591 1.933 289.136 0.089 0
20-10-2012 04:10 93.4 % 11.702 2.112 233.302 0.445 0
20-10-2012 04:00 93.3 % 11.706 1.888 218.761 0.212 0
20-10-2012 03:50 93.2 % 11.706 1.785 278.17 0.245 0
20-10-2012 03:40 93.2 % 11.829 1.952 252.941 0.297 0
20-10-2012 03:30 92.8 % 11.826 1.747 221.382 0.883 0

I dati sono presentati in modo automatico a scopo informativo. In seguito a verifica i dati possono subire modifiche o essere invalidati e non riportati negli archivi definitivi.